Forside
METAR-TAF:

METAR-TAF

Lufthavne :

Chicago Rockford International Airport

Rockford, Illinois, USA

Breddekreds: 42-11-34N, længdekreds: 089-05-36W, højde: 224 m

Aktuelle vejr

Denne rapport blev lavet for 26 minutter siden, kl. 13:54 UTC
Vind 12 kt fra nordøst
Temperatur 4°C
Fugtighed 65%
Tryk 1019 hPa
Sigt: 16.1 km
Overskyet i en højde af 2100 ft

METAR: KRFD 311354Z 05012KT 10SM OVC021 04/M02 A3010 RMK AO2 SLP196 T00391017

Tid: 09:20 (14:20 UTC)

Vejrudsigter

Denne rapport blev lavet for 3 timer og 0 minutter siden, kl. 11:20 UTC
Foreløbig gælder fra 31 på 12 UTC til 01 på 12 UTC
Vind 11 kt fra nordnordøst
Sigt: 10 km
Overskyet i en højde af 1500 ft
Fra 31 på 2000 UTC
Vind 10 kt fra nordnordøst
Sigt: 10 km
Spredte skyer i en højde af 2500 ft
Brudte skyer i en højde af 3500 ft
Fra 01 på 0200 UTC
Vind 6 kt fra nord
Sigt: 10 km
Brudte skyer i en højde af 3500 ft

TAF: KRFD 311120Z 3112/0112 03011KT P6SM OVC015 FM312000 03010KT P6SM SCT025 BKN035 FM010200 01006KT P6SM BKN035

Vejrobservationer og prognoser fra mere end 4000 lufthavne (METAR og TAF).

De gule og røde prikker repræsenterer de meteorologiske stationer.

Flyt musen over at se navnet på stationen.

Så klik over at se vejr observationer og prognoser.

At skifte det kort: Klik på de grønne knapper med et sort kors for at zoome ind; på den grønne knap med en bindestreg for at zoome ud; eller på de grønne pile for tilstødende kort.


METAR-TAF: